Terminal Aerodrome Forecast
Issued by NWS St Louis, MO

Home | Current Version | Previous Version | Text Only | Print | Product List | Glossary On
Versions: 1 2 3 4 5 6 7 8 9 10 11 12 13 14 15 16 17 18 19 20 21 22 23 24 25 26 27 28 29 30 31 32 33 34 35 36 37 38 39
000
FTUS43 KLSX 300900 AAA
TAFSTL
TAF AMD
KSTL 300902Z 3009/3112 20009KT P6SM BKN100
     FM301700 22011KT P6SM VCTS SCT040CB BKN100
     FM310000 20007KT P6SM SCT050 BKN120=

USA.gov is the U.S. government's official web portal to all federal, state and local government web resources and services.